SKW8398 KCVG-KMEM
Flight info
| Callsign | SKW8398 |
|---|---|
| Flight time | 1h 2m |
| Altitude | 34000 |
| Route | CHCLL6 RAMRD BLUZZ5 |
| Aircraft | CRJ7/M-SDFGIRWY/S |
Departure
| Time | 2026-05-04 01:50 |
|---|---|
| Airport | Cincinnati Northern Kentucky International Airport (KCVG) |
Arrival
| Time | 2026-05-04 02:52 |
|---|---|
| Airport | Memphis International Airport (KMEM) |
| Time | Latitude | Longitude | Altitude | Speed | Heading |
|---|---|---|---|---|---|
| 2026-05-04 01:27 | 39.05090 | -84.65584 | 711 ft | 0 kts | 180° |
| 2026-05-04 01:42 | 39.05096 | -84.65584 | 877 ft | 2 kts | 180° |
| 2026-05-04 01:42 | 39.05115 | -84.65584 | 877 ft | 2 kts | 180° |
| 2026-05-04 01:42 | 39.05131 | -84.65586 | 877 ft | 3 kts | 161° |
| 2026-05-04 01:43 | 39.05145 | -84.65600 | 877 ft | 3 kts | 125° |
| 2026-05-04 01:43 | 39.05153 | -84.65623 | 877 ft | 3 kts | 102° |
| 2026-05-04 01:43 | 39.05155 | -84.65642 | 877 ft | 1 kts | 89° |
| 2026-05-04 01:43 | 39.05155 | -84.65648 | 877 ft | 0 kts | 89° |
| 2026-05-04 01:45 | 39.05155 | -84.65646 | 877 ft | 0 kts | 89° |
| 2026-05-04 01:45 | 39.05155 | -84.65630 | 877 ft | 4 kts | 89° |
| 2026-05-04 01:46 | 39.05155 | -84.65569 | 877 ft | 6 kts | 90° |
| 2026-05-04 01:46 | 39.05155 | -84.65527 | 877 ft | 8 kts | 90° |
| 2026-05-04 01:46 | 39.05155 | -84.65434 | 877 ft | 12 kts | 90° |
| 2026-05-04 01:46 | 39.05155 | -84.65304 | 877 ft | 16 kts | 90° |
| 2026-05-04 01:47 | 39.05154 | -84.65140 | 877 ft | 20 kts | 90° |
| 2026-05-04 01:47 | 39.05162 | -84.65001 | 877 ft | 10 kts | 47° |
| 2026-05-04 01:47 | 39.05242 | -84.64987 | 877 ft | 16 kts | 0° |
| 2026-05-04 01:47 | 39.05369 | -84.64986 | 877 ft | 20 kts | 0° |
| 2026-05-04 01:48 | 39.05509 | -84.64986 | 877 ft | 21 kts | 0° |
| 2026-05-04 01:48 | 39.05576 | -84.64928 | 877 ft | 13 kts | 91° |
| 2026-05-04 01:48 | 39.05574 | -84.64791 | 878 ft | 17 kts | 90° |
| 2026-05-04 01:48 | 39.05554 | -84.64678 | 880 ft | 12 kts | 152° |
| 2026-05-04 01:49 | 39.05407 | -84.64670 | 879 ft | 44 kts | 180° |
| 2026-05-04 01:49 | 39.04898 | -84.64671 | 882 ft | 101 kts | 180° |
| 2026-05-04 01:49 | 39.04045 | -84.64675 | 914 ft | 138 kts | 180° |
| 2026-05-04 01:49 | 39.03068 | -84.64641 | 1405 ft | 142 kts | 179° |
| 2026-05-04 01:50 | 39.02092 | -84.64561 | 2053 ft | 139 kts | 180° |
| 2026-05-04 01:50 | 39.01132 | -84.64364 | 2618 ft | 141 kts | 173° |
| 2026-05-04 01:50 | 39.00152 | -84.64031 | 3102 ft | 152 kts | 170° |
| 2026-05-04 01:50 | 38.99081 | -84.63643 | 3535 ft | 168 kts | 170° |
| 2026-05-04 01:51 | 38.97898 | -84.63227 | 3966 ft | 184 kts | 170° |
| 2026-05-04 01:51 | 38.96586 | -84.62806 | 4362 ft | 207 kts | 171° |
| 2026-05-04 01:51 | 38.95082 | -84.62424 | 4777 ft | 233 kts | 174° |
| 2026-05-04 01:51 | 38.93396 | -84.62047 | 5188 ft | 258 kts | 174° |
| 2026-05-04 01:52 | 38.91575 | -84.61543 | 5845 ft | 269 kts | 171° |
| 2026-05-04 01:52 | 38.89726 | -84.60947 | 6651 ft | 278 kts | 169° |
| 2026-05-04 01:52 | 38.87835 | -84.60298 | 7415 ft | 284 kts | 169° |
| 2026-05-04 01:52 | 38.85904 | -84.59629 | 8184 ft | 291 kts | 170° |
| 2026-05-04 01:53 | 38.83920 | -84.59038 | 8930 ft | 293 kts | 181° |
| 2026-05-04 01:53 | 38.81986 | -84.59501 | 9669 ft | 280 kts | 215° |
| 2026-05-04 01:53 | 38.80437 | -84.60964 | 10408 ft | 278 kts | 228° |
| 2026-05-04 01:53 | 38.79015 | -84.62641 | 10908 ft | 289 kts | 230° |
| 2026-05-04 01:54 | 38.77533 | -84.64463 | 11426 ft | 301 kts | 230° |
| 2026-05-04 01:54 | 38.75991 | -84.66354 | 11928 ft | 313 kts | 230° |
| 2026-05-04 01:54 | 38.74354 | -84.68278 | 12446 ft | 325 kts | 228° |
| 2026-05-04 01:54 | 38.72659 | -84.70213 | 12980 ft | 335 kts | 228° |
| 2026-05-04 01:55 | 38.70895 | -84.72199 | 13676 ft | 340 kts | 228° |
| 2026-05-04 01:55 | 38.69112 | -84.74217 | 14336 ft | 343 kts | 228° |
| 2026-05-04 01:55 | 38.67314 | -84.76244 | 14993 ft | 346 kts | 229° |
| 2026-05-04 01:55 | 38.65522 | -84.78263 | 15621 ft | 349 kts | 228° |
| 2026-05-04 01:56 | 38.63685 | -84.80319 | 16262 ft | 352 kts | 228° |
| 2026-05-04 01:56 | 38.61830 | -84.82386 | 16879 ft | 355 kts | 228° |
| 2026-05-04 01:56 | 38.59956 | -84.84470 | 17498 ft | 358 kts | 229° |
| 2026-05-04 01:56 | 38.58075 | -84.86579 | 18088 ft | 361 kts | 229° |
| 2026-05-04 01:57 | 38.56183 | -84.88715 | 18635 ft | 364 kts | 229° |
| 2026-05-04 01:57 | 38.54345 | -84.90779 | 19130 ft | 367 kts | 229° |
| 2026-05-04 01:57 | 38.52422 | -84.92933 | 19633 ft | 369 kts | 229° |
| 2026-05-04 01:57 | 38.50532 | -84.95062 | 20118 ft | 371 kts | 229° |
| 2026-05-04 01:58 | 38.48584 | -84.97251 | 20592 ft | 374 kts | 229° |
| 2026-05-04 01:58 | 38.46652 | -84.99424 | 21059 ft | 376 kts | 230° |
| 2026-05-04 01:58 | 38.44704 | -85.01673 | 21517 ft | 378 kts | 230° |
| 2026-05-04 01:58 | 38.42754 | -85.03939 | 21969 ft | 380 kts | 230° |
| 2026-05-04 01:59 | 38.40794 | -85.06222 | 22375 ft | 383 kts | 230° |
| 2026-05-04 01:59 | 38.38828 | -85.08507 | 22795 ft | 386 kts | 230° |
| 2026-05-04 01:59 | 38.36829 | -85.10825 | 23213 ft | 388 kts | 230° |
| 2026-05-04 01:59 | 38.34829 | -85.13146 | 23622 ft | 390 kts | 230° |
| 2026-05-04 02:00 | 38.32815 | -85.15480 | 23964 ft | 392 kts | 230° |
| 2026-05-04 02:00 | 38.30789 | -85.17823 | 24282 ft | 394 kts | 230° |
| 2026-05-04 02:00 | 38.28753 | -85.20179 | 24602 ft | 396 kts | 230° |
| 2026-05-04 02:00 | 38.26712 | -85.22543 | 24910 ft | 398 kts | 230° |
| 2026-05-04 02:01 | 38.24676 | -85.24894 | 25213 ft | 400 kts | 230° |
| 2026-05-04 02:01 | 38.22640 | -85.27243 | 25499 ft | 401 kts | 230° |
| 2026-05-04 02:01 | 38.20568 | -85.29636 | 25782 ft | 403 kts | 230° |
| 2026-05-04 02:01 | 38.18485 | -85.32034 | 26077 ft | 405 kts | 230° |
| 2026-05-04 02:02 | 38.16393 | -85.34447 | 26362 ft | 406 kts | 230° |
| 2026-05-04 02:02 | 38.14294 | -85.36863 | 26630 ft | 408 kts | 230° |
| 2026-05-04 02:02 | 38.12185 | -85.39285 | 26896 ft | 410 kts | 230° |
| 2026-05-04 02:02 | 38.10068 | -85.41721 | 27126 ft | 411 kts | 230° |
| 2026-05-04 02:03 | 38.08055 | -85.44267 | 27337 ft | 407 kts | 236° |
| 2026-05-04 02:03 | 38.06233 | -85.47011 | 27567 ft | 405 kts | 239° |
| 2026-05-04 02:03 | 38.04528 | -85.49857 | 27803 ft | 405 kts | 241° |
| 2026-05-04 02:03 | 38.02839 | -85.52725 | 28054 ft | 407 kts | 241° |
| 2026-05-04 02:04 | 38.01122 | -85.55577 | 28250 ft | 410 kts | 240° |
| 2026-05-04 02:04 | 37.99395 | -85.58349 | 28900 ft | 400 kts | 240° |
| 2026-05-04 02:04 | 37.97715 | -85.61039 | 29587 ft | 391 kts | 240° |
| 2026-05-04 02:04 | 37.96059 | -85.63691 | 30173 ft | 384 kts | 241° |
| 2026-05-04 02:05 | 37.94414 | -85.66344 | 30477 ft | 382 kts | 241° |
| 2026-05-04 02:05 | 37.92774 | -85.68986 | 30706 ft | 382 kts | 241° |
| 2026-05-04 02:05 | 37.91125 | -85.71627 | 30936 ft | 381 kts | 241° |
| 2026-05-04 02:05 | 37.89480 | -85.74257 | 31151 ft | 381 kts | 241° |
| 2026-05-04 02:06 | 37.87841 | -85.76884 | 31341 ft | 380 kts | 241° |
| 2026-05-04 02:06 | 37.86200 | -85.79514 | 31547 ft | 380 kts | 241° |
| 2026-05-04 02:06 | 37.84556 | -85.82135 | 31779 ft | 380 kts | 241° |
| 2026-05-04 02:06 | 37.82915 | -85.84753 | 31968 ft | 381 kts | 241° |
| 2026-05-04 02:07 | 37.81046 | -85.87204 | 32076 ft | 397 kts | 229° |
| 2026-05-04 02:07 | 37.78813 | -85.89321 | 32259 ft | 402 kts | 226° |
| 2026-05-04 02:07 | 37.76541 | -85.91386 | 32462 ft | 403 kts | 225° |
| 2026-05-04 02:07 | 37.74184 | -85.93328 | 32692 ft | 408 kts | 220° |
| 2026-05-04 02:08 | 37.71663 | -85.95020 | 32931 ft | 412 kts | 216° |
| 2026-05-04 02:08 | 37.69145 | -85.96544 | 33248 ft | 410 kts | 216° |
| 2026-05-04 02:08 | 37.66565 | -85.98082 | 33460 ft | 409 kts | 216° |
| 2026-05-04 02:08 | 37.64008 | -85.99639 | 33633 ft | 407 kts | 217° |
| 2026-05-04 02:09 | 37.61486 | -86.01236 | 33848 ft | 405 kts | 217° |
| 2026-05-04 02:09 | 37.59007 | -86.02809 | 34023 ft | 405 kts | 217° |
| 2026-05-04 02:09 | 37.53946 | -86.06016 | 34159 ft | 409 kts | 217° |
| 2026-05-04 02:10 | 37.48810 | -86.09264 | 34181 ft | 417 kts | 217° |
| 2026-05-04 02:10 | 37.43579 | -86.12566 | 34180 ft | 424 kts | 216° |
| 2026-05-04 02:11 | 37.38303 | -86.15901 | 34158 ft | 430 kts | 216° |
| 2026-05-04 02:11 | 37.32917 | -86.19281 | 34153 ft | 435 kts | 216° |
| 2026-05-04 02:12 | 37.27472 | -86.22699 | 34171 ft | 439 kts | 216° |
| 2026-05-04 02:12 | 37.22028 | -86.26116 | 34179 ft | 441 kts | 216° |
| 2026-05-04 02:13 | 37.16541 | -86.29555 | 34155 ft | 440 kts | 215° |
| 2026-05-04 02:13 | 37.11216 | -86.32881 | 34175 ft | 440 kts | 215° |
| 2026-05-04 02:14 | 37.05736 | -86.36302 | 34176 ft | 440 kts | 215° |
| 2026-05-04 02:14 | 37.00260 | -86.39716 | 34178 ft | 440 kts | 215° |
| 2026-05-04 02:15 | 36.95403 | -86.43982 | 34188 ft | 417 kts | 234° |
| 2026-05-04 02:15 | 36.91533 | -86.49335 | 34170 ft | 414 kts | 237° |
| 2026-05-04 02:16 | 36.88024 | -86.54958 | 34187 ft | 404 kts | 246° |
| 2026-05-04 02:16 | 36.85420 | -86.61123 | 34184 ft | 400 kts | 250° |
| 2026-05-04 02:17 | 36.82904 | -86.67122 | 34184 ft | 399 kts | 248° |
| 2026-05-04 02:17 | 36.80217 | -86.73185 | 34189 ft | 398 kts | 248° |
| 2026-05-04 02:18 | 36.77548 | -86.79214 | 34189 ft | 396 kts | 248° |
| 2026-05-04 02:18 | 36.74883 | -86.85225 | 34193 ft | 395 kts | 248° |
| 2026-05-04 02:19 | 36.72240 | -86.91173 | 34190 ft | 394 kts | 248° |
| 2026-05-04 02:19 | 36.69584 | -86.97142 | 34173 ft | 393 kts | 247° |
| 2026-05-04 02:20 | 36.66976 | -87.02994 | 34198 ft | 392 kts | 247° |
| 2026-05-04 02:20 | 36.64330 | -87.08917 | 34207 ft | 391 kts | 247° |
| 2026-05-04 02:21 | 36.61680 | -87.14840 | 34204 ft | 391 kts | 247° |
| 2026-05-04 02:21 | 36.59031 | -87.20753 | 34220 ft | 391 kts | 247° |
| 2026-05-04 02:22 | 36.56396 | -87.26614 | 34228 ft | 390 kts | 247° |
| 2026-05-04 02:22 | 36.53760 | -87.32478 | 34213 ft | 390 kts | 247° |
| 2026-05-04 02:23 | 36.51145 | -87.38286 | 34213 ft | 390 kts | 246° |
| 2026-05-04 02:23 | 36.48490 | -87.44166 | 34217 ft | 390 kts | 246° |
| 2026-05-04 02:24 | 36.45831 | -87.50049 | 34205 ft | 389 kts | 246° |
| 2026-05-04 02:24 | 36.43175 | -87.55911 | 34221 ft | 389 kts | 246° |
| 2026-05-04 02:25 | 36.40512 | -87.61775 | 34224 ft | 390 kts | 246° |
| 2026-05-04 02:25 | 36.37847 | -87.67637 | 34222 ft | 390 kts | 246° |
| 2026-05-04 02:26 | 36.35218 | -87.73415 | 34218 ft | 390 kts | 246° |
| 2026-05-04 02:26 | 36.32547 | -87.79282 | 34225 ft | 390 kts | 246° |
| 2026-05-04 02:27 | 36.29848 | -87.85133 | 34230 ft | 391 kts | 245° |
| 2026-05-04 02:27 | 36.27147 | -87.90956 | 33868 ft | 393 kts | 246° |
| 2026-05-04 02:28 | 36.25810 | -87.93871 | 33632 ft | 388 kts | 246° |
| 2026-05-04 02:28 | 36.24500 | -87.96739 | 33391 ft | 386 kts | 246° |
| 2026-05-04 02:28 | 36.23182 | -87.99621 | 33132 ft | 384 kts | 246° |
| 2026-05-04 02:28 | 36.21869 | -88.02493 | 32879 ft | 383 kts | 245° |
| 2026-05-04 02:29 | 36.20544 | -88.05375 | 32646 ft | 385 kts | 245° |
| 2026-05-04 02:29 | 36.19254 | -88.08175 | 32427 ft | 387 kts | 245° |
| 2026-05-04 02:29 | 36.17909 | -88.11095 | 32197 ft | 393 kts | 245° |
| 2026-05-04 02:29 | 36.16550 | -88.14047 | 31972 ft | 397 kts | 245° |
| 2026-05-04 02:30 | 36.15173 | -88.17035 | 31745 ft | 401 kts | 245° |
| 2026-05-04 02:30 | 36.13784 | -88.20040 | 31517 ft | 404 kts | 245° |
| 2026-05-04 02:30 | 36.12380 | -88.23072 | 31288 ft | 408 kts | 245° |
| 2026-05-04 02:30 | 36.10966 | -88.26126 | 31062 ft | 411 kts | 245° |
| 2026-05-04 02:31 | 36.10021 | -88.28166 | 30914 ft | 413 kts | 245° |
| 2026-05-04 02:31 | 36.08590 | -88.31256 | 30681 ft | 415 kts | 245° |
| 2026-05-04 02:31 | 36.07150 | -88.34357 | 30468 ft | 416 kts | 245° |
| 2026-05-04 02:31 | 36.05709 | -88.37462 | 30225 ft | 417 kts | 245° |
| 2026-05-04 02:32 | 36.03805 | -88.41557 | 29867 ft | 418 kts | 245° |
| 2026-05-04 02:32 | 36.02862 | -88.43587 | 29696 ft | 419 kts | 245° |
| 2026-05-04 02:32 | 36.01407 | -88.46709 | 29432 ft | 419 kts | 245° |
| 2026-05-04 02:32 | 35.99981 | -88.49777 | 29154 ft | 420 kts | 244° |
| 2026-05-04 02:33 | 35.98542 | -88.52863 | 28898 ft | 421 kts | 244° |
| 2026-05-04 02:33 | 35.97078 | -88.55996 | 28644 ft | 420 kts | 244° |
| 2026-05-04 02:33 | 35.95618 | -88.59115 | 28386 ft | 418 kts | 244° |
| 2026-05-04 02:33 | 35.94165 | -88.62217 | 28155 ft | 416 kts | 244° |
| 2026-05-04 02:34 | 35.92720 | -88.65303 | 27890 ft | 415 kts | 244° |
| 2026-05-04 02:34 | 35.91281 | -88.68377 | 27647 ft | 412 kts | 244° |
| 2026-05-04 02:34 | 35.89848 | -88.71431 | 27406 ft | 410 kts | 244° |
| 2026-05-04 02:34 | 35.88419 | -88.74476 | 27174 ft | 408 kts | 244° |
| 2026-05-04 02:35 | 35.87032 | -88.77425 | 26942 ft | 406 kts | 244° |
| 2026-05-04 02:35 | 35.85623 | -88.80423 | 26724 ft | 404 kts | 244° |
| 2026-05-04 02:35 | 35.84214 | -88.83415 | 26497 ft | 403 kts | 244° |
| 2026-05-04 02:35 | 35.82813 | -88.86392 | 26262 ft | 401 kts | 244° |
| 2026-05-04 02:36 | 35.81414 | -88.89365 | 26044 ft | 401 kts | 244° |
| 2026-05-04 02:36 | 35.80015 | -88.92331 | 25824 ft | 400 kts | 244° |
| 2026-05-04 02:36 | 35.78634 | -88.95253 | 25610 ft | 399 kts | 244° |
| 2026-05-04 02:36 | 35.77236 | -88.98208 | 25396 ft | 399 kts | 244° |
| 2026-05-04 02:37 | 35.75840 | -89.01154 | 25182 ft | 399 kts | 244° |
| 2026-05-04 02:37 | 35.74442 | -89.04108 | 24955 ft | 399 kts | 244° |
| 2026-05-04 02:37 | 35.72991 | -89.07022 | 24723 ft | 401 kts | 238° |
| 2026-05-04 02:37 | 35.71251 | -89.09632 | 24513 ft | 404 kts | 232° |
| 2026-05-04 02:38 | 35.69323 | -89.12083 | 24300 ft | 405 kts | 229° |
| 2026-05-04 02:38 | 35.67356 | -89.14498 | 24089 ft | 406 kts | 229° |
| 2026-05-04 02:38 | 35.65362 | -89.16955 | 23866 ft | 406 kts | 230° |
| 2026-05-04 02:38 | 35.63399 | -89.19453 | 23425 ft | 407 kts | 231° |
| 2026-05-04 02:39 | 35.61375 | -89.22077 | 21827 ft | 438 kts | 230° |
| 2026-05-04 02:39 | 35.59300 | -89.24865 | 20320 ft | 437 kts | 233° |
| 2026-05-04 02:39 | 35.57390 | -89.27692 | 18893 ft | 423 kts | 235° |
| 2026-05-04 02:39 | 35.55577 | -89.30487 | 17361 ft | 414 kts | 235° |
| 2026-05-04 02:40 | 35.53821 | -89.33188 | 15855 ft | 405 kts | 235° |
| 2026-05-04 02:40 | 35.52073 | -89.35861 | 14404 ft | 398 kts | 234° |
| 2026-05-04 02:40 | 35.50328 | -89.38457 | 12871 ft | 390 kts | 234° |
| 2026-05-04 02:40 | 35.48877 | -89.41165 | 11926 ft | 367 kts | 245° |
| 2026-05-04 02:41 | 35.47729 | -89.43857 | 11199 ft | 347 kts | 246° |
| 2026-05-04 02:41 | 35.46678 | -89.46425 | 10658 ft | 327 kts | 247° |
| 2026-05-04 02:41 | 35.45736 | -89.48757 | 10307 ft | 307 kts | 247° |
| 2026-05-04 02:41 | 35.44814 | -89.51046 | 9931 ft | 292 kts | 248° |
| 2026-05-04 02:42 | 35.43929 | -89.53251 | 9518 ft | 284 kts | 248° |
| 2026-05-04 02:42 | 35.43092 | -89.55348 | 9131 ft | 276 kts | 248° |
| 2026-05-04 02:42 | 35.42254 | -89.57458 | 8739 ft | 275 kts | 248° |
| 2026-05-04 02:42 | 35.41424 | -89.59562 | 8369 ft | 274 kts | 248° |
| 2026-05-04 02:43 | 35.40602 | -89.61662 | 7995 ft | 272 kts | 248° |
| 2026-05-04 02:43 | 35.39786 | -89.63748 | 7636 ft | 271 kts | 248° |
| 2026-05-04 02:43 | 35.38981 | -89.65825 | 7269 ft | 269 kts | 248° |
| 2026-05-04 02:43 | 35.38184 | -89.67887 | 6904 ft | 267 kts | 248° |
| 2026-05-04 02:44 | 35.37400 | -89.69934 | 6542 ft | 264 kts | 248° |
| 2026-05-04 02:44 | 35.36624 | -89.71972 | 6153 ft | 265 kts | 248° |
| 2026-05-04 02:44 | 35.35852 | -89.74026 | 5768 ft | 266 kts | 248° |
| 2026-05-04 02:44 | 35.35088 | -89.76100 | 5436 ft | 265 kts | 248° |
| 2026-05-04 02:45 | 35.34341 | -89.78139 | 5287 ft | 261 kts | 248° |
| 2026-05-04 02:45 | 35.33601 | -89.80174 | 5225 ft | 262 kts | 248° |
| 2026-05-04 02:45 | 35.32879 | -89.82170 | 5146 ft | 267 kts | 248° |
| 2026-05-04 02:45 | 35.32140 | -89.84215 | 4781 ft | 265 kts | 248° |
| 2026-05-04 02:46 | 35.31404 | -89.86276 | 4429 ft | 262 kts | 248° |
| 2026-05-04 02:46 | 35.30681 | -89.88309 | 4130 ft | 259 kts | 247° |
| 2026-05-04 02:46 | 35.29970 | -89.90308 | 3805 ft | 250 kts | 248° |
| 2026-05-04 02:46 | 35.29295 | -89.92207 | 3476 ft | 235 kts | 248° |
| 2026-05-04 02:47 | 35.28646 | -89.93944 | 3309 ft | 214 kts | 238° |
| 2026-05-04 02:47 | 35.27545 | -89.95064 | 3240 ft | 211 kts | 210° |
| 2026-05-04 02:47 | 35.26237 | -89.95953 | 3211 ft | 218 kts | 209° |
| 2026-05-04 02:47 | 35.24923 | -89.96815 | 3214 ft | 212 kts | 207° |
| 2026-05-04 02:48 | 35.23483 | -89.97243 | 3197 ft | 217 kts | 187° |
| 2026-05-04 02:48 | 35.21961 | -89.97442 | 3194 ft | 222 kts | 186° |
| 2026-05-04 02:48 | 35.20413 | -89.97558 | 3185 ft | 224 kts | 181° |
| 2026-05-04 02:48 | 35.18886 | -89.97506 | 3085 ft | 211 kts | 174° |
| 2026-05-04 02:49 | 35.17452 | -89.97463 | 2790 ft | 202 kts | 180° |
| 2026-05-04 02:49 | 35.16064 | -89.97485 | 2495 ft | 196 kts | 180° |
| 2026-05-04 02:49 | 35.14721 | -89.97494 | 2239 ft | 190 kts | 178° |
| 2026-05-04 02:49 | 35.13436 | -89.97473 | 2004 ft | 187 kts | 178° |
| 2026-05-04 02:50 | 35.12219 | -89.97423 | 1994 ft | 160 kts | 176° |
| 2026-05-04 02:50 | 35.11149 | -89.97402 | 1676 ft | 144 kts | 178° |
| 2026-05-04 02:50 | 35.10198 | -89.97397 | 1384 ft | 133 kts | 178° |
| 2026-05-04 02:50 | 35.09270 | -89.97385 | 1201 ft | 133 kts | 178° |
| 2026-05-04 02:51 | 35.08339 | -89.97365 | 1007 ft | 133 kts | 178° |
| 2026-05-04 02:51 | 35.07430 | -89.97349 | 786 ft | 129 kts | 178° |
| 2026-05-04 02:51 | 35.06535 | -89.97327 | 621 ft | 131 kts | 178° |
| 2026-05-04 02:51 | 35.05610 | -89.97305 | 466 ft | 133 kts | 178° |
| 2026-05-04 02:52 | 35.04692 | -89.97290 | 331 ft | 128 kts | 178° |
| 2026-05-04 02:52 | 35.03945 | -89.97274 | 309 ft | 82 kts | 180° |
| 2026-05-04 02:52 | 35.03568 | -89.97269 | 307 ft | 33 kts | 179° |
| 2026-05-04 02:52 | 35.03365 | -89.97282 | 305 ft | 27 kts | 191° |
| 2026-05-04 02:53 | 35.03211 | -89.97366 | 303 ft | 17 kts | 221° |
| 2026-05-04 02:53 | 35.03164 | -89.97489 | 298 ft | 17 kts | 268° |
| 2026-05-04 02:53 | 35.03161 | -89.97643 | 296 ft | 14 kts | 269° |
| 2026-05-04 02:53 | 35.03161 | -89.97744 | 297 ft | 12 kts | 269° |
| 2026-05-04 02:54 | 35.03191 | -89.97818 | 300 ft | 10 kts | 346° |
| 2026-05-04 02:54 | 35.03283 | -89.97822 | 299 ft | 19 kts | 359° |
| 2026-05-04 02:54 | 35.03441 | -89.97823 | 300 ft | 25 kts | 2° |
| 2026-05-04 02:54 | 35.03625 | -89.97829 | 301 ft | 27 kts | 358° |
| 2026-05-04 02:55 | 35.03889 | -89.97895 | 310 ft | 14 kts | 273° |
| 2026-05-04 02:55 | 35.03897 | -89.98014 | 310 ft | 14 kts | 306° |
| 2026-05-04 02:55 | 35.04001 | -89.98062 | 309 ft | 14 kts | 351° |
| 2026-05-04 02:56 | 35.04055 | -89.98048 | 310 ft | 4 kts | 30° |
| 2026-05-04 02:56 | 35.04071 | -89.98037 | 310 ft | 1 kts | 30° |
| 2026-05-04 02:56 | 35.04072 | -89.98036 | 310 ft | 0 kts | 30° |